Time;durP1;ratioP1;P1;durP2;ratioP2;P2;SDS_P1;SDS_P2;PMS_P1;PMS_P2;Temp;Humidity;BMP_temperature;BMP_pressure;BME280_temperature;BME280_humidity;BME280_pressure;Samples;Min_cycle;Max_cycle;Signal;HPM_P1;HPM_P2
2022/03/04 00:02:37;;;;;;;;;;;22.00;47.50;;;;;;6325373;27;20740;-55
2022/03/04 00:05:39;;;;;;;;;;;22.10;47.30;;;;;;6324903;27;19931;-54
2022/03/04 00:08:41;;;;;;;;;;;22.20;47.50;;;;;;6305931;27;20033;-56
2022/03/04 00:11:42;;;;;;;;;;;22.20;47.00;;;;;;6324952;27;19935;-52
2022/03/04 00:14:44;;;;;;;;;;;21.90;47.20;;;;;;6304340;27;19943;-53
2022/03/04 00:17:46;;;;;;;;;;;22.00;47.50;;;;;;6322173;27;20591;-56
2022/03/04 00:20:47;;;;;;;;;;;22.10;47.70;;;;;;6324466;27;19976;-54
2022/03/04 00:23:48;;;;;;;;;;;21.80;47.20;;;;;;6323684;27;20667;-55
2022/03/04 00:26:50;;;;;;;;;;;21.80;47.50;;;;;;6321690;27;19931;-58
2022/03/04 00:29:53;;;;;;;;;;;22.20;46.60;;;;;;6319726;27;19927;-55
2022/03/04 00:32:54;;;;;;;;;;;22.10;47.70;;;;;;6323752;27;19962;-57
2022/03/04 00:35:55;;;;;;;;;;;21.60;47.40;;;;;;6322723;27;20050;-50
2022/03/04 00:38:57;;;;;;;;;;;22.00;47.70;;;;;;6324940;27;19983;-55
2022/03/04 00:41:58;;;;;;;;;;;22.20;47.80;;;;;;6304583;27;20640;-51
2022/03/04 00:45:01;;;;;;;;;;;22.20;47.70;;;;;;6326153;27;20054;-52
2022/03/04 00:48:02;;;;;;;;;;;22.20;47.30;;;;;;6307061;27;20018;-53
2022/03/04 00:51:04;;;;;;;;;;;22.10;47.60;;;;;;6323630;27;19937;-51
2022/03/04 00:54:06;;;;;;;;;;;22.10;47.10;;;;;;6307394;27;19938;-52
2022/03/04 00:57:07;;;;;;;;;;;21.90;47.00;;;;;;6322469;27;19938;-54
2022/03/04 01:00:10;;;;;;;;;;;22.40;48.20;;;;;;6302601;27;20760;-55
2022/03/04 01:03:11;;;;;;;;;;;22.00;47.60;;;;;;6327469;27;19927;-52
2022/03/04 01:06:13;;;;;;;;;;;21.60;47.40;;;;;;6325881;27;19999;-52
2022/03/04 01:09:15;;;;;;;;;;;21.80;47.60;;;;;;6328850;27;19931;-53
2022/03/04 01:12:16;;;;;;;;;;;22.00;46.80;;;;;;6310195;27;20844;-54
2022/03/04 01:15:18;;;;;;;;;;;21.70;47.40;;;;;;6330372;27;20184;-54
2022/03/04 01:18:19;;;;;;;;;;;21.50;47.30;;;;;;6328344;27;20923;-52
2022/03/04 01:21:21;;;;;;;;;;;22.30;47.70;;;;;;6328480;27;19986;-52
2022/03/04 01:24:22;;;;;;;;;;;21.60;47.40;;;;;;6328271;27;19924;-53
2022/03/04 01:27:24;;;;;;;;;;;21.50;47.70;;;;;;6326909;27;19935;-52
2022/03/04 01:30:26;;;;;;;;;;;21.70;48.00;;;;;;6323985;27;20945;-54
2022/03/04 01:33:27;;;;;;;;;;;21.80;47.50;;;;;;6329661;27;19971;-53
2022/03/04 01:36:33;;;;;;;;;;;21.90;47.50;;;;;;6325263;27;20021;-54
2022/03/04 01:39:35;;;;;;;;;;;21.60;47.10;;;;;;6326593;27;19931;-53
2022/03/04 01:42:36;;;;;;;;;;;22.20;48.20;;;;;;6329081;27;19927;-55
2022/03/04 01:45:38;;;;;;;;;;;21.80;47.30;;;;;;6307769;27;19931;-54
2022/03/04 01:48:40;;;;;;;;;;;21.70;47.40;;;;;;6333311;27;20635;-56
2022/03/04 01:51:42;;;;;;;;;;;21.70;47.40;;;;;;6328064;27;19938;-56
2022/03/04 01:54:43;;;;;;;;;;;21.60;47.40;;;;;;6327917;27;19931;-55
2022/03/04 01:57:45;;;;;;;;;;;21.80;47.60;;;;;;6329106;27;20749;-53
2022/03/04 02:00:47;;;;;;;;;;;21.90;47.50;;;;;;6311272;27;19931;-54
2022/03/04 02:03:49;;;;;;;;;;;21.70;47.40;;;;;;6331739;27;19931;-55
2022/03/04 02:06:51;;;;;;;;;;;21.50;47.20;;;;;;6332787;27;19927;-51
2022/03/04 02:09:52;;;;;;;;;;;22.00;47.50;;;;;;6313679;27;19927;-51
2022/03/04 02:12:53;;;;;;;;;;;21.60;47.00;;;;;;6327707;27;20977;-53
2022/03/04 02:15:55;;;;;;;;;;;21.70;47.40;;;;;;6328782;27;21687;-54
2022/03/04 02:18:57;;;;;;;;;;;21.60;47.30;;;;;;6336149;27;20168;-52
2022/03/04 02:22:00;;;;;;;;;;;21.50;47.30;;;;;;6335240;27;20048;-54
2022/03/04 02:25:02;;;;;;;;;;;21.90;47.50;;;;;;6332436;27;19973;-54
2022/03/04 02:28:03;;;;;;;;;;;21.70;47.20;;;;;;6315989;27;19969;-56
2022/03/04 02:31:05;;;;;;;;;;;21.70;47.30;;;;;;6331293;27;19976;-53
2022/03/04 02:34:06;;;;;;;;;;;21.60;47.40;;;;;;6335619;27;20053;-54
2022/03/04 02:37:08;;;;;;;;;;;22.50;47.80;;;;;;6331185;27;20839;-54
2022/03/04 02:40:11;;;;;;;;;;;21.80;47.40;;;;;;6333283;27;20042;-54
2022/03/04 02:43:12;;;;;;;;;;;21.90;45.90;;;;;;6312785;27;20042;-52
2022/03/04 02:46:14;;;;;;;;;;;21.60;47.20;;;;;;6336463;27;19931;-55
2022/03/04 02:49:15;;;;;;;;;;;21.90;47.40;;;;;;6328362;27;20995;-54
2022/03/04 02:52:17;;;;;;;;;;;21.90;47.50;;;;;;6334864;27;19966;-51
2022/03/04 02:55:19;;;;;;;;;;;21.50;47.20;;;;;;6332305;27;19932;-51
2022/03/04 02:58:20;;;;;;;;;;;21.90;47.40;;;;;;6330053;27;19927;-55
2022/03/04 03:01:22;;;;;;;;;;;21.80;47.50;;;;;;6330271;27;19927;-52
2022/03/04 03:04:24;;;;;;;;;;;21.60;47.30;;;;;;6333207;27;19934;-55
2022/03/04 03:07:26;;;;;;;;;;;21.50;47.40;;;;;;6328329;27;20166;-53
2022/03/04 03:10:28;;;;;;;;;;;21.40;47.20;;;;;;6322010;27;20383;-53
2022/03/04 03:13:29;;;;;;;;;;;21.70;47.40;;;;;;6321727;27;20218;-52
2022/03/04 03:16:30;;;;;;;;;;;21.40;47.10;;;;;;6323654;27;19937;-52
2022/03/04 03:19:32;;;;;;;;;;;21.20;47.20;;;;;;6320636;27;20616;-53
2022/03/04 03:22:34;;;;;;;;;;;21.60;47.40;;;;;;6324752;27;20370;-54
2022/03/04 03:25:35;;;;;;;;;;;21.60;47.30;;;;;;6325492;27;20477;-51
2022/03/04 03:28:37;;;;;;;;;;;21.70;47.50;;;;;;6319692;27;20084;-54
2022/03/04 03:31:38;;;;;;;;;;;21.50;46.60;;;;;;6330871;27;19931;-54
2022/03/04 03:34:40;;;;;;;;;;;21.90;47.40;;;;;;6331051;27;19969;-56
2022/03/04 03:37:42;;;;;;;;;;;21.50;47.10;;;;;;6324550;27;20341;-52
2022/03/04 03:40:44;;;;;;;;;;;21.70;47.30;;;;;;6323671;27;20218;-52
2022/03/04 03:44:05;;;;;;;;;;;21.90;47.40;;;;;;6289704;27;20259;-52
2022/03/04 03:47:07;;;;;;;;;;;21.80;47.40;;;;;;6318664;27;19938;-54
2022/03/04 03:50:09;;;;;;;;;;;21.40;47.20;;;;;;6322774;27;19939;-54
2022/03/04 03:53:11;;;;;;;;;;;21.70;47.20;;;;;;6303610;27;20211;-51
2022/03/04 03:56:12;;;;;;;;;;;21.30;47.40;;;;;;6296183;27;20771;-55
2022/03/04 03:59:14;;;;;;;;;;;21.60;47.30;;;;;;6321635;27;20483;-51
2022/03/04 04:02:15;;;;;;;;;;;21.50;47.20;;;;;;6319982;27;20027;-53
2022/03/04 04:05:17;;;;;;;;;;;22.00;47.60;;;;;;6319569;27;20237;-51
2022/03/04 04:08:19;;;;;;;;;;;21.30;47.20;;;;;;6319167;27;19938;-53
2022/03/04 04:11:21;;;;;;;;;;;22.30;47.80;;;;;;6296818;27;19927;-53
2022/03/04 04:14:22;;;;;;;;;;;21.90;47.40;;;;;;6317554;27;20003;-52
2022/03/04 04:17:24;;;;;;;;;;;21.50;47.20;;;;;;6324167;27;20061;-54
2022/03/04 04:20:25;;;;;;;;;;;21.40;47.20;;;;;;6322086;27;20062;-53
2022/03/04 04:23:27;;;;;;;;;;;21.50;47.20;;;;;;6321109;27;20474;-54
2022/03/04 04:26:28;;;;;;;;;;;21.80;47.30;;;;;;6323930;27;20046;-51
2022/03/04 04:29:30;;;;;;;;;;;21.60;47.40;;;;;;6329092;27;20743;-52
2022/03/04 04:32:31;;;;;;;;;;;21.80;47.40;;;;;;6332031;27;19962;-52
2022/03/04 04:35:32;;;;;;;;;;;21.50;47.20;;;;;;6330921;27;19923;-53
2022/03/04 04:38:34;;;;;;;;;;;21.40;47.10;;;;;;6319546;27;20413;-55
2022/03/04 04:41:37;;;;;;;;;;;21.60;47.20;;;;;;6328336;27;20871;-53
2022/03/04 04:44:38;;;;;;;;;;;22.00;47.50;;;;;;6331873;27;19988;-54
2022/03/04 04:47:40;;;;;;;;;;;21.60;47.50;;;;;;6327491;27;20726;-53
2022/03/04 04:50:41;;;;;;;;;;;21.30;47.10;;;;;;6330054;27;19927;-54
2022/03/04 04:53:43;;;;;;;;;;;21.60;47.20;;;;;;6333687;27;20362;-54
2022/03/04 04:56:45;;;;;;;;;;;21.50;47.20;;;;;;6325444;27;20070;-55
2022/03/04 04:59:46;;;;;;;;;;;21.90;47.50;;;;;;6318656;27;20215;-54
2022/03/04 05:02:48;;;;;;;;;;;21.60;47.30;;;;;;6323539;27;20062;-50
2022/03/04 05:05:50;;;;;;;;;;;21.30;47.20;;;;;;6321395;27;20050;-50
2022/03/04 05:08:51;;;;;;;;;;;21.90;47.30;;;;;;6314490;27;20374;-49
2022/03/04 05:11:53;;;;;;;;;;;21.50;47.00;;;;;;6320949;27;20049;-53
2022/03/04 05:14:54;;;;;;;;;;;21.80;47.20;;;;;;6317926;27;20514;-51
2022/03/04 05:17:56;;;;;;;;;;;21.40;47.20;;;;;;6318509;27;19931;-52
2022/03/04 05:20:57;;;;;;;;;;;21.50;47.30;;;;;;6320219;27;19931;-50
2022/03/04 05:23:59;;;;;;;;;;;21.50;47.20;;;;;;6321029;27;20308;-51
2022/03/04 05:27:00;;;;;;;;;;;21.80;47.30;;;;;;6318051;27;20059;-51
2022/03/04 05:30:02;;;;;;;;;;;21.40;47.10;;;;;;6313420;27;20082;-51
2022/03/04 05:33:03;;;;;;;;;;;21.30;47.00;;;;;;6324332;27;20841;-56
2022/03/04 05:36:05;;;;;;;;;;;21.70;47.30;;;;;;6325612;27;20034;-53
2022/03/04 05:39:07;;;;;;;;;;;21.50;47.10;;;;;;6323986;27;20763;-51
2022/03/04 05:42:08;;;;;;;;;;;21.60;47.10;;;;;;6316954;27;20391;-51
2022/03/04 05:45:10;;;;;;;;;;;21.20;46.60;;;;;;6318018;27;20765;-55
2022/03/04 05:48:11;;;;;;;;;;;21.50;47.20;;;;;;6324989;27;20248;-52
2022/03/04 05:51:13;;;;;;;;;;;21.30;47.10;;;;;;6328179;27;19923;-56
2022/03/04 05:54:15;;;;;;;;;;;21.40;47.00;;;;;;6329568;27;20015;-53
2022/03/04 05:57:16;;;;;;;;;;;21.30;47.00;;;;;;6319637;27;19944;-54
2022/03/04 06:00:17;;;;;;;;;;;21.40;47.30;;;;;;6321668;27;19995;-57
2022/03/04 06:03:19;;;;;;;;;;;21.20;47.00;;;;;;6324683;27;20034;-55
2022/03/04 06:06:20;;;;;;;;;;;21.80;47.40;;;;;;6327187;27;19955;-54
2022/03/04 06:09:27;;;;;;;;;;;21.30;47.20;;;;;;6326677;27;19934;-55
2022/03/04 06:12:29;;;;;;;;;;;21.50;47.10;;;;;;6325325;27;19932;-56
2022/03/04 06:15:30;;;;;;;;;;;21.90;47.40;;;;;;6321998;27;20092;-54
2022/03/04 06:18:32;;;;;;;;;;;21.70;47.30;;;;;;6324514;27;20041;-53
2022/03/04 06:21:34;;;;;;;;;;;21.70;47.30;;;;;;6321061;27;19938;-55
2022/03/04 06:24:36;;;;;;;;;;;21.60;47.40;;;;;;6320555;27;19994;-55
2022/03/04 06:27:37;;;;;;;;;;;21.40;47.10;;;;;;6308440;27;20045;-52
2022/03/04 06:30:39;;;;;;;;;;;21.80;47.20;;;;;;6325526;27;19927;-55
2022/03/04 06:33:42;;;;;;;;;;;21.40;47.00;;;;;;6321914;27;20024;-56
2022/03/04 06:36:43;;;;;;;;;;;21.50;47.20;;;;;;6320491;27;20788;-52
2022/03/04 06:39:45;;;;;;;;;;;22.00;47.50;;;;;;6322410;27;20004;-54
2022/03/04 06:42:47;;;;;;;;;;;21.70;47.20;;;;;;6312361;27;20001;-52
2022/03/04 06:45:48;;;;;;;;;;;22.00;47.50;;;;;;6315791;27;19937;-52
2022/03/04 06:48:53;;;;;;;;;;;21.40;46.90;;;;;;6318579;27;19923;-57
2022/03/04 06:51:54;;;;;;;;;;;21.30;47.10;;;;;;6315020;27;19927;-53
2022/03/04 06:54:56;;;;;;;;;;;21.30;46.80;;;;;;6312993;27;20019;-55
2022/03/04 06:57:58;;;;;;;;;;;21.10;47.00;;;;;;6307235;27;20767;-53
2022/03/04 07:00:59;;;;;;;;;;;21.80;47.20;;;;;;6291419;27;20125;-53
2022/03/04 07:04:01;;;;;;;;;;;21.30;47.10;;;;;;6313648;27;19935;-48
2022/03/04 07:07:02;;;;;;;;;;;21.20;47.00;;;;;;6309520;27;19927;-51
2022/03/04 07:10:05;;;;;;;;;;;21.30;47.00;;;;;;6298256;27;19985;-53
2022/03/04 07:13:06;;;;;;;;;;;21.60;47.30;;;;;;6307094;27;19942;-54
2022/03/04 07:16:08;;;;;;;;;;;21.50;47.30;;;;;;6298863;27;19931;-52
2022/03/04 07:19:09;;;;;;;;;;;21.60;47.10;;;;;;6300632;27;21426;-54
2022/03/04 07:22:11;;;;;;;;;;;21.20;47.10;;;;;;6300650;27;19933;-52
2022/03/04 07:25:15;;;;;;;;;;;21.30;47.10;;;;;;6302232;27;19955;-52
2022/03/04 07:28:17;;;;;;;;;;;21.40;47.00;;;;;;6277943;27;19931;-54
2022/03/04 07:31:18;;;;;;;;;;;21.30;46.80;;;;;;6278876;27;19936;-54
2022/03/04 07:34:20;;;;;;;;;;;21.30;46.80;;;;;;6274942;27;19931;-50
2022/03/04 07:37:21;;;;;;;;;;;21.40;47.10;;;;;;6283574;27;19965;-52
2022/03/04 07:40:23;;;;;;;;;;;21.70;47.30;;;;;;6293281;27;20841;-54
2022/03/04 07:43:25;;;;;;;;;;;21.50;47.10;;;;;;6271148;27;19934;-54
2022/03/04 07:46:26;;;;;;;;;;;21.70;47.60;;;;;;6279868;27;19931;-52
2022/03/04 07:49:27;;;;;;;;;;;21.40;47.20;;;;;;6257546;27;20177;-54
2022/03/04 07:52:31;;;;;;;;;;;21.30;47.00;;;;;;6222102;27;27196;-54
2022/03/04 07:55:34;;;;;;;;;;;21.50;47.10;;;;;;6229206;27;20043;-51
2022/03/04 07:58:35;;;;;;;;;;;21.20;46.90;;;;;;6228352;27;36333;-55
2022/03/04 08:01:37;;;;;;;;;;;21.70;47.10;;;;;;6188070;27;19937;-54
2022/03/04 08:04:39;;;;;;;;;;;21.80;46.10;;;;;;6192782;27;19939;-55
2022/03/04 08:07:41;;;;;;;;;;;21.20;46.60;;;;;;6211670;27;21861;-56
2022/03/04 08:10:43;;;;;;;;;;;21.40;46.60;;;;;;6208428;27;21779;-53
2022/03/04 08:13:44;;;;;;;;;;;21.70;46.70;;;;;;6199076;27;22551;-54
2022/03/04 08:16:46;;;;;;;;;;;22.00;46.70;;;;;;6166742;27;19931;-53
2022/03/04 08:19:47;;;;;;;;;;;21.60;46.60;;;;;;6181560;27;21774;-53
2022/03/04 08:22:48;;;;;;;;;;;22.20;47.00;;;;;;6193240;27;20651;-54
2022/03/04 08:25:50;;;;;;;;;;;21.80;46.90;;;;;;6212035;27;19938;-51
2022/03/04 08:28:52;;;;;;;;;;;22.20;46.70;;;;;;6187726;27;19931;-55
2022/03/04 08:31:54;;;;;;;;;;;21.60;46.10;;;;;;6122099;27;20046;-50
2022/03/04 08:34:55;;;;;;;;;;;21.80;46.50;;;;;;6170168;27;22574;-49
2022/03/04 08:37:57;;;;;;;;;;;21.80;46.60;;;;;;6169556;27;19931;-55
2022/03/04 08:40:59;;;;;;;;;;;21.50;46.60;;;;;;6176343;27;20402;-52
2022/03/04 08:44:01;;;;;;;;;;;21.90;46.60;;;;;;6193019;27;19931;-55
2022/03/04 08:47:03;;;;;;;;;;;21.70;46.50;;;;;;6153905;27;19931;-57
2022/03/04 08:50:05;;;;;;;;;;;21.60;46.30;;;;;;6170485;27;20920;-50
2022/03/04 08:53:06;;;;;;;;;;;22.50;46.80;;;;;;6160329;27;20049;-51
2022/03/04 08:56:08;;;;;;;;;;;21.90;46.50;;;;;;6192543;27;20057;-53
2022/03/04 08:59:10;;;;;;;;;;;21.80;46.40;;;;;;6162343;27;22694;-54
2022/03/04 09:02:11;;;;;;;;;;;22.10;46.70;;;;;;6164090;27;20062;-53
2022/03/04 09:05:13;;;;;;;;;;;21.70;46.00;;;;;;6170407;27;20016;-56
2022/03/04 09:08:14;;;;;;;;;;;22.00;46.30;;;;;;6160719;27;19931;-52
2022/03/04 09:11:16;;;;;;;;;;;21.90;46.90;;;;;;6163228;27;19946;-52
2022/03/04 09:14:19;;;;;;;;;;;22.20;46.50;;;;;;6140286;27;21818;-50
2022/03/04 09:17:21;;;;;;;;;;;22.20;46.20;;;;;;6175478;27;19935;-55
2022/03/04 09:20:22;;;;;;;;;;;21.90;46.30;;;;;;6169137;27;20057;-52
2022/03/04 09:23:23;;;;;;;;;;;21.90;46.20;;;;;;6165935;27;19931;-52
2022/03/04 09:26:30;;;;;;;;;;;22.00;46.10;;;;;;6171982;27;19938;-54
2022/03/04 09:29:32;;;;;;;;;;;21.90;46.70;;;;;;6184120;27;19974;-54
2022/03/04 09:32:33;;;;;;;;;;;22.20;46.20;;;;;;6163405;27;19938;-51
2022/03/04 09:35:34;;;;;;;;;;;22.00;46.00;;;;;;6157467;27;19976;-55
2022/03/04 09:38:36;;;;;;;;;;;21.80;45.80;;;;;;6161543;27;19938;-55
2022/03/04 09:41:39;;;;;;;;;;;22.30;45.70;;;;;;6165799;27;19957;-56
2022/03/04 09:44:41;;;;;;;;;;;22.10;45.70;;;;;;6151128;27;20338;-56
2022/03/04 09:47:43;;;;;;;;;;;22.30;46.00;;;;;;6166067;27;19939;-52
2022/03/04 09:50:45;;;;;;;;;;;22.50;45.70;;;;;;6160476;27;19935;-56
2022/03/04 09:53:47;;;;;;;;;;;22.10;45.80;;;;;;6145241;27;19974;-54
2022/03/04 09:56:49;;;;;;;;;;;22.00;45.90;;;;;;6158941;27;20081;-55
2022/03/04 09:59:51;;;;;;;;;;;22.60;46.00;;;;;;6176061;27;19938;-55
2022/03/04 10:02:52;;;;;;;;;;;22.00;45.50;;;;;;6164611;27;19931;-54
2022/03/04 10:05:55;;;;;;;;;;;22.20;45.70;;;;;;6154643;27;19931;-51
2022/03/04 10:08:57;;;;;;;;;;;22.50;45.90;;;;;;6160726;27;19962;-52
2022/03/04 10:12:02;;;;;;;;;;;22.20;45.70;;;;;;6179889;27;20036;-53
2022/03/04 10:15:04;;;;;;;;;;;22.40;45.60;;;;;;6156865;27;19937;-51
2022/03/04 10:18:06;;;;;;;;;;;22.20;45.80;;;;;;6172555;27;19931;-54
2022/03/04 10:21:07;;;;;;;;;;;22.30;45.60;;;;;;6190588;27;19937;-55
2022/03/04 10:24:09;;;;;;;;;;;22.00;45.60;;;;;;6154056;27;20041;-53
2022/03/04 10:27:12;;;;;;;;;;;22.40;45.60;;;;;;6147175;27;22329;-54
2022/03/04 10:30:15;;;;;;;;;;;22.40;45.60;;;;;;6158824;27;21470;-55
2022/03/04 10:33:17;;;;;;;;;;;22.80;45.70;;;;;;6143557;27;21319;-61
2022/03/04 10:36:19;;;;;;;;;;;22.80;45.70;;;;;;6170606;27;20035;-55
2022/03/04 10:39:21;;;;;;;;;;;22.30;45.30;;;;;;6157167;27;19931;-55
2022/03/04 10:42:38;;;;;;;;;;;22.60;45.70;;;;;;6191974;27;19931;-52
2022/03/04 10:45:41;;;;;;;;;;;22.40;45.30;;;;;;6159761;27;19938;-59
2022/03/04 10:48:50;;;;;;;;;;;22.60;45.40;;;;;;6186546;27;20049;-53
2022/03/04 10:52:04;;;;;;;;;;;22.30;45.10;;;;;;6163430;27;19938;-56
2022/03/04 10:55:06;;;;;;;;;;;22.50;45.10;;;;;;6174477;27;20013;-62
2022/03/04 10:58:13;;;;;;;;;;;22.60;45.20;;;;;;6168350;27;27528;-54
2022/03/04 11:01:18;;;;;;;;;;;22.80;45.10;;;;;;6150400;27;19931;-56
2022/03/04 11:04:19;;;;;;;;;;;22.20;45.10;;;;;;6168060;27;20057;-56
2022/03/04 11:07:21;;;;;;;;;;;22.70;45.40;;;;;;6192337;27;19935;-53
2022/03/04 11:10:23;;;;;;;;;;;23.20;45.50;;;;;;6202567;27;19931;-52
2022/03/04 11:13:25;;;;;;;;;;;22.60;46.00;;;;;;6205107;27;19931;-54
2022/03/04 11:16:26;;;;;;;;;;;22.40;45.70;;;;;;6204857;27;19931;-55
2022/03/04 11:19:28;;;;;;;;;;;22.30;45.20;;;;;;6208533;27;19939;-52
2022/03/04 11:22:30;;;;;;;;;;;23.00;45.50;;;;;;6207505;27;20049;-59
2022/03/04 11:25:35;;;;;;;;;;;23.00;45.30;;;;;;6226610;27;19935;-53
2022/03/04 11:28:38;;;;;;;;;;;22.70;45.00;;;;;;6231613;27;19938;-54
2022/03/04 11:31:39;;;;;;;;;;;22.70;44.60;;;;;;6215624;27;19931;-54
2022/03/04 11:34:42;;;;;;;;;;;22.80;45.00;;;;;;6242027;27;19938;-52
2022/03/04 11:37:49;;;;;;;;;;;22.60;44.80;;;;;;6232535;27;19935;-52
2022/03/04 11:40:51;;;;;;;;;;;22.80;45.00;;;;;;6249329;27;19931;-52
2022/03/04 11:43:54;;;;;;;;;;;22.60;45.00;;;;;;6249901;27;19931;-53
2022/03/04 11:46:59;;;;;;;;;;;22.50;45.00;;;;;;6248659;27;19931;-53
2022/03/04 11:50:22;;;;;;;;;;;22.80;45.00;;;;;;6237988;27;19937;-55
2022/03/04 11:53:24;;;;;;;;;;;22.50;44.80;;;;;;6241254;27;20090;-55
2022/03/04 11:56:25;;;;;;;;;;;23.00;45.20;;;;;;6266667;27;19977;-52
2022/03/04 11:59:28;;;;;;;;;;;22.80;45.00;;;;;;6242505;27;19935;-52
2022/03/04 12:02:36;;;;;;;;;;;22.80;45.00;;;;;;6265765;27;19938;-60
2022/03/04 12:05:38;;;;;;;;;;;22.70;44.80;;;;;;6266485;27;19930;-54
2022/03/04 12:08:40;;;;;;;;;;;22.90;44.70;;;;;;6240395;27;19931;-53
2022/03/04 12:12:08;;;;;;;;;;;22.90;45.00;;;;;;6259011;27;19931;-55
2022/03/04 12:15:24;;;;;;;;;;;22.70;44.90;;;;;;6234682;27;20774;-55
2022/03/04 12:18:28;;;;;;;;;;;22.90;44.90;;;;;;6264630;27;19938;-51
2022/03/04 12:21:29;;;;;;;;;;;23.00;44.30;;;;;;6249335;27;20019;-51
2022/03/04 12:24:31;;;;;;;;;;;23.10;45.00;;;;;;6248730;27;20061;-51
2022/03/04 12:27:33;;;;;;;;;;;22.60;44.60;;;;;;6270640;27;20980;-54
2022/03/04 12:30:34;;;;;;;;;;;22.90;44.70;;;;;;6262451;27;19937;-54
2022/03/04 12:33:37;;;;;;;;;;;22.50;44.60;;;;;;6247461;27;19935;-54
2022/03/04 12:36:38;;;;;;;;;;;22.80;44.80;;;;;;6252917;27;19974;-54
2022/03/04 12:39:40;;;;;;;;;;;22.90;45.50;;;;;;6242067;27;19931;-51
2022/03/04 12:42:50;;;;;;;;;;;22.50;44.50;;;;;;6242119;27;20001;-54
2022/03/04 12:45:52;;;;;;;;;;;22.90;44.40;;;;;;6190741;27;20647;-55
2022/03/04 12:48:54;;;;;;;;;;;22.60;44.60;;;;;;6249088;27;20030;-51
2022/03/04 12:51:56;;;;;;;;;;;22.60;44.50;;;;;;6189886;27;19931;-53
2022/03/04 12:55:01;;;;;;;;;;;23.00;44.60;;;;;;6206276;27;20363;-54
2022/03/04 12:58:03;;;;;;;;;;;22.90;44.50;;;;;;6212764;27;21477;-53
2022/03/04 13:01:05;;;;;;;;;;;23.00;44.80;;;;;;6211948;27;19937;-51
2022/03/04 13:04:09;;;;;;;;;;;22.60;44.30;;;;;;6179491;27;19931;-54
2022/03/04 13:07:10;;;;;;;;;;;22.90;44.50;;;;;;6169856;27;20336;-54
2022/03/04 13:10:12;;;;;;;;;;;22.50;44.50;;;;;;6194478;27;20019;-53
2022/03/04 13:13:13;;;;;;;;;;;22.70;44.40;;;;;;6200301;27;20875;-52
2022/03/04 13:16:19;;;;;;;;;;;22.60;44.40;;;;;;6191879;27;19989;-56
2022/03/04 13:19:23;;;;;;;;;;;23.00;44.60;;;;;;6219988;27;20736;-49
2022/03/04 13:22:25;;;;;;;;;;;23.00;44.50;;;;;;6215368;27;23147;-56
2022/03/04 13:25:28;;;;;;;;;;;23.20;44.50;;;;;;6183840;27;19931;-52
2022/03/04 13:28:44;;;;;;;;;;;22.60;44.20;;;;;;6180384;27;19939;-53
2022/03/04 13:31:46;;;;;;;;;;;23.10;44.40;;;;;;6187192;27;22375;-52
2022/03/04 13:34:58;;;;;;;;;;;22.90;44.00;;;;;;6194732;27;19931;-53
2022/03/04 13:38:00;;;;;;;;;;;22.90;44.20;;;;;;6190640;27;21112;-49
2022/03/04 13:41:04;;;;;;;;;;;23.40;44.50;;;;;;6205285;27;19937;-55
2022/03/04 13:44:07;;;;;;;;;;;22.90;44.00;;;;;;6181785;27;20963;-54
2022/03/04 13:47:08;;;;;;;;;;;23.20;44.10;;;;;;6204520;27;20780;-55
2022/03/04 13:50:22;;;;;;;;;;;23.20;44.10;;;;;;6214707;27;19931;-55
2022/03/04 13:53:23;;;;;;;;;;;22.80;43.90;;;;;;6215097;27;19931;-55
2022/03/04 13:56:24;;;;;;;;;;;23.00;44.20;;;;;;6211888;27;19931;-52
2022/03/04 13:59:26;;;;;;;;;;;23.40;44.40;;;;;;6201691;27;20483;-53
2022/03/04 14:02:27;;;;;;;;;;;23.00;44.10;;;;;;6187205;27;20071;-55
2022/03/04 14:05:30;;;;;;;;;;;22.90;44.00;;;;;;6196506;27;19931;-59
2022/03/04 14:08:32;;;;;;;;;;;23.00;44.00;;;;;;6203824;27;20846;-51
2022/03/04 14:11:33;;;;;;;;;;;23.10;44.10;;;;;;6212419;27;20491;-56
2022/03/04 14:14:35;;;;;;;;;;;23.00;44.10;;;;;;6200444;27;22358;-57
2022/03/04 14:17:48;;;;;;;;;;;23.20;44.10;;;;;;6197338;27;19931;-52
2022/03/04 14:20:50;;;;;;;;;;;22.80;43.80;;;;;;6218855;27;19938;-52
2022/03/04 14:23:51;;;;;;;;;;;22.70;43.70;;;;;;6199130;27;19939;-53
2022/03/04 14:26:53;;;;;;;;;;;23.20;44.00;;;;;;6199819;27;20704;-51
2022/03/04 14:29:54;;;;;;;;;;;23.20;44.00;;;;;;6200638;27;22112;-54
2022/03/04 14:32:56;;;;;;;;;;;23.10;43.90;;;;;;6216039;27;21372;-50
2022/03/04 14:35:58;;;;;;;;;;;23.30;43.90;;;;;;6185200;27;20002;-56
2022/03/04 14:39:00;;;;;;;;;;;23.20;43.70;;;;;;6217708;27;20003;-52
2022/03/04 14:42:01;;;;;;;;;;;22.90;43.70;;;;;;6199601;27;19931;-55
2022/03/04 14:45:03;;;;;;;;;;;23.00;43.50;;;;;;6218081;27;19932;-53
2022/03/04 14:48:05;;;;;;;;;;;23.00;43.80;;;;;;6223845;27;20001;-53
2022/03/04 14:51:07;;;;;;;;;;;23.10;43.70;;;;;;6207521;27;19931;-51
2022/03/04 14:54:08;;;;;;;;;;;23.50;44.00;;;;;;6220257;27;19931;-54
2022/03/04 14:57:11;;;;;;;;;;;23.60;43.60;;;;;;6185340;27;19931;-50
2022/03/04 15:00:14;;;;;;;;;;;23.00;43.70;;;;;;6197353;27;19938;-53
2022/03/04 15:03:15;;;;;;;;;;;22.90;43.60;;;;;;6185805;27;20022;-52
2022/03/04 15:06:17;;;;;;;;;;;22.80;43.70;;;;;;6176862;27;20038;-51
2022/03/04 15:09:19;;;;;;;;;;;23.00;43.50;;;;;;6187396;27;19931;-54
2022/03/04 15:12:33;;;;;;;;;;;23.50;43.70;;;;;;6175090;27;19931;-56
2022/03/04 15:15:36;;;;;;;;;;;23.20;43.50;;;;;;6162453;27;20107;-51
2022/03/04 15:18:38;;;;;;;;;;;23.30;43.70;;;;;;6199700;27;19935;-52
2022/03/04 15:21:44;;;;;;;;;;;23.10;43.50;;;;;;6202796;27;20663;-52
2022/03/04 15:24:45;;;;;;;;;;;23.20;43.00;;;;;;6208919;27;20046;-55
2022/03/04 15:27:48;;;;;;;;;;;23.30;43.70;;;;;;6203803;27;20008;-51
2022/03/04 15:30:49;;;;;;;;;;;23.40;43.30;;;;;;6196004;27;20628;-55
2022/03/04 15:33:51;;;;;;;;;;;23.40;44.10;;;;;;6196053;27;20020;-50
2022/03/04 15:36:53;;;;;;;;;;;23.00;43.40;;;;;;6219304;27;20503;-56
2022/03/04 15:39:55;;;;;;;;;;;23.20;43.40;;;;;;6209775;27;19931;-52
2022/03/04 15:42:56;;;;;;;;;;;23.70;43.60;;;;;;6204057;27;19931;-50
2022/03/04 15:45:58;;;;;;;;;;;23.10;43.30;;;;;;6191206;27;19938;-52
2022/03/04 15:49:00;;;;;;;;;;;23.40;43.50;;;;;;6202711;27;19931;-52
2022/03/04 15:52:02;;;;;;;;;;;23.40;43.20;;;;;;6191339;27;20788;-50
2022/03/04 15:55:03;;;;;;;;;;;23.10;43.30;;;;;;6194825;27;22199;-54
2022/03/04 15:58:05;;;;;;;;;;;23.20;43.20;;;;;;6201445;27;19931;-52
2022/03/04 16:01:06;;;;;;;;;;;23.20;43.30;;;;;;6197455;27;19935;-52
2022/03/04 16:04:08;;;;;;;;;;;23.30;43.40;;;;;;6198097;27;20014;-53
2022/03/04 16:07:10;;;;;;;;;;;23.00;43.70;;;;;;6210278;27;19932;-56
2022/03/04 16:10:12;;;;;;;;;;;23.40;43.30;;;;;;6197500;27;21305;-50
2022/03/04 16:13:19;;;;;;;;;;;23.40;43.00;;;;;;6214842;27;19931;-55
2022/03/04 16:16:20;;;;;;;;;;;23.30;43.30;;;;;;6214895;27;19931;-54
2022/03/04 16:19:22;;;;;;;;;;;23.10;43.30;;;;;;6214399;27;19931;-51
2022/03/04 16:22:24;;;;;;;;;;;23.40;43.30;;;;;;6212540;27;21571;-55
2022/03/04 16:25:26;;;;;;;;;;;23.00;43.10;;;;;;6224193;27;19967;-54
2022/03/04 16:28:27;;;;;;;;;;;23.30;43.30;;;;;;6220496;27;19931;-52
2022/03/04 16:31:28;;;;;;;;;;;23.00;43.10;;;;;;6225480;27;19931;-53
2022/03/04 16:34:30;;;;;;;;;;;23.40;43.10;;;;;;6224320;27;19947;-52
2022/03/04 16:37:32;;;;;;;;;;;23.50;43.30;;;;;;6243169;27;20111;-50
2022/03/04 16:40:34;;;;;;;;;;;23.40;43.30;;;;;;6234771;27;19938;-57
2022/03/04 16:43:35;;;;;;;;;;;23.00;43.10;;;;;;6215850;27;19932;-50
2022/03/04 16:46:37;;;;;;;;;;;23.40;43.30;;;;;;6241626;27;21329;-53
2022/03/04 16:49:58;;;;;;;;;;;23.00;42.90;;;;;;6229040;27;20907;-53
2022/03/04 16:53:00;;;;;;;;;;;23.70;43.30;;;;;;6248361;27;19935;-51
2022/03/04 16:56:01;;;;;;;;;;;23.30;43.50;;;;;;6249528;27;19975;-50
2022/03/04 16:59:05;;;;;;;;;;;23.40;43.40;;;;;;6257807;27;19931;-49
2022/03/04 17:02:27;;;;;;;;;;;22.90;43.00;;;;;;6236437;27;21168;-54
2022/03/04 17:05:32;;;;;;;;;;;23.60;43.40;;;;;;6250341;27;19931;-52
2022/03/04 17:08:34;;;;;;;;;;;23.40;40.80;;;;;;6243540;27;19939;-53
2022/03/04 17:11:35;;;;;;;;;;;23.40;43.20;;;;;;6259191;27;19939;-51
2022/03/04 17:14:37;;;;;;;;;;;23.40;42.50;;;;;;6257952;27;22112;-53
2022/03/04 17:17:39;;;;;;;;;;;23.20;42.90;;;;;;6253937;27;19931;-52
2022/03/04 17:20:40;;;;;;;;;;;23.00;43.00;;;;;;6276521;27;20123;-54
2022/03/04 17:23:42;;;;;;;;;;;23.40;43.20;;;;;;6290867;27;20759;-52
2022/03/04 17:26:43;;;;;;;;;;;23.30;43.20;;;;;;6289141;27;19935;-54
2022/03/04 17:29:45;;;;;;;;;;;23.40;43.00;;;;;;6294247;27;20254;-55
2022/03/04 17:32:47;;;;;;;;;;;23.40;43.10;;;;;;6296528;27;19937;-52
2022/03/04 17:35:48;;;;;;;;;;;23.00;43.00;;;;;;6299001;27;19962;-51
2022/03/04 17:38:50;;;;;;;;;;;23.30;42.90;;;;;;6296259;27;20850;-51
2022/03/04 17:41:51;;;;;;;;;;;23.10;42.90;;;;;;6298549;27;19931;-51